Kealakekua, Hawaii
Current Conditions -  °F | °C
As of 11:53 PM on Friday 28 Nov 2014 (Local Time) from PHKO Reporting Station
Clear Clear  
Wind Chill: 75°   Ceiling: Unl
Heat Index: 75°   Visibility: 10mi
Dew Point: 65°   Wind: 5mph
Humidity: 71%   Direction: 120°ESE
Pressure: 29.95"   Gusts: NA
Location:  19.51°N, 155.91°W
Report Text: PHKO 290953Z AUTO 12004KT 10SM CLR 24/18 A2995 RMK AO2 SLP141 T02390183 403330217 TSNO
Loading
Personal Weather Stations






























Interactive Weather Map New forecast layout! Learn more

10-Day Weather Forecast

Advertisements
Track Severe Weather on mobile